createdAt,value
2022-11-20T00:01:04.428Z,100915.56
2022-11-20T00:03:37.661Z,100916.94
2022-11-20T00:06:09.412Z,100911.34
2022-11-20T00:08:40.904Z,100882.91
2022-11-20T00:11:16.163Z,100911.84
2022-11-20T00:13:52.187Z,100900.41
2022-11-20T00:16:23.642Z,100893.72
2022-11-20T00:18:57.156Z,100893.41
2022-11-20T00:21:31.203Z,100892.53
2022-11-20T00:24:03.076Z,100866.59
2022-11-20T00:26:35.530Z,100900.88
2022-11-20T00:29:05.910Z,100878.53
2022-11-20T00:31:37.004Z,100898.91
2022-11-20T00:34:21.051Z,100892.91
2022-11-20T00:36:51.517Z,100895.28
2022-11-20T00:39:24.746Z,100884.66
2022-11-20T00:41:59.268Z,100889.50
2022-11-20T00:44:42.537Z,100872.09
2022-11-20T00:47:13.043Z,100869.31
2022-11-20T00:49:46.437Z,100880.69
2022-11-20T00:52:34.941Z,100872.88
2022-11-20T00:55:05.676Z,100884.03
2022-11-20T00:57:43.043Z,100876.75
2022-11-20T01:03:10.762Z,100861.94
2022-11-20T01:05:43.674Z,100842.41
2022-11-20T01:08:19.188Z,100831.78
2022-11-20T01:10:52.594Z,100864.91
2022-11-20T01:13:45.305Z,100828.16
2022-11-20T01:16:18.014Z,100868.03
2022-11-20T01:18:50.909Z,100862.03
2022-11-20T01:21:22.416Z,100845.47
2022-11-20T01:23:53.973Z,100861.03
2022-11-20T01:26:24.878Z,100831.50
2022-11-20T01:31:45.268Z,100842.06
2022-11-20T01:34:18.228Z,100839.56
2022-11-20T01:37:01.539Z,100854.28
2022-11-20T01:39:36.100Z,100851.25
2022-11-20T01:42:34.224Z,100848.22
2022-11-20T01:45:26.365Z,100866.59
2022-11-20T01:48:03.485Z,100841.38
2022-11-20T01:50:36.319Z,100870.22
2022-11-20T01:53:06.355Z,100864.41
2022-11-20T01:55:53.793Z,100856.00
2022-11-20T01:58:25.472Z,100877.69
2022-11-20T02:00:55.816Z,100849.28
2022-11-20T02:03:41.701Z,100873.22
2022-11-20T02:06:17.334Z,100873.94
2022-11-20T02:08:46.782Z,100871.69
2022-11-20T02:11:19.775Z,100880.50
2022-11-20T02:13:51.351Z,100875.00
2022-11-20T02:16:28.911Z,100858.97
2022-11-20T02:19:02.545Z,100859.81
2022-11-20T02:21:36.357Z,100839.91
2022-11-20T02:24:11.896Z,100838.81
2022-11-20T02:26:54.637Z,100873.88
2022-11-20T02:29:29.851Z,100874.66
2022-11-20T02:32:00.723Z,100879.03
2022-11-20T02:34:31.897Z,100856.50
2022-11-20T02:37:03.487Z,100863.50
2022-11-20T02:39:41.941Z,100876.81
2022-11-20T02:42:12.451Z,100843.47
2022-11-20T02:44:44.616Z,100886.47
2022-11-20T02:47:13.010Z,100850.41
2022-11-20T02:49:43.446Z,100860.34
2022-11-20T02:52:18.450Z,100862.03
2022-11-20T02:54:58.794Z,100873.44
2022-11-20T02:57:31.669Z,100858.53
2022-11-20T03:00:02.140Z,100869.66
2022-11-20T03:02:34.229Z,100874.06
2022-11-20T03:05:05.029Z,100893.19
2022-11-20T03:07:35.117Z,100903.22
2022-11-20T03:10:12.138Z,100874.13
2022-11-20T03:12:44.972Z,100883.66
2022-11-20T03:15:13.468Z,100880.44
2022-11-20T03:17:47.007Z,100883.03
2022-11-20T03:20:18.179Z,100910.53
2022-11-20T03:22:48.979Z,100893.72
2022-11-20T03:25:31.915Z,100901.50
2022-11-20T03:28:07.948Z,100877.69
2022-11-20T03:31:04.701Z,100888.63
2022-11-20T03:33:37.202Z,100902.00
2022-11-20T03:36:09.285Z,100858.94
2022-11-20T03:38:38.171Z,100901.53
2022-11-20T03:41:17.248Z,100860.38
2022-11-20T03:43:54.182Z,100871.06
2022-11-20T03:46:23.824Z,100876.41
2022-11-20T03:48:54.848Z,100905.31
2022-11-20T03:51:26.353Z,100868.34
2022-11-20T03:53:59.217Z,100881.28
2022-11-20T03:56:32.944Z,100911.25
2022-11-20T03:59:10.060Z,100899.78
2022-11-20T04:01:43.207Z,100904.50
2022-11-20T04:04:18.039Z,100909.50
2022-11-20T04:06:47.858Z,100902.22
2022-11-20T04:09:16.791Z,100881.69
2022-11-20T04:11:48.405Z,100870.00
2022-11-20T04:14:19.069Z,100880.59
2022-11-20T04:17:02.906Z,100893.69
2022-11-20T04:19:45.914Z,100867.56
2022-11-20T04:22:16.714Z,100879.03
2022-11-20T04:24:47.046Z,100855.97
2022-11-20T04:27:26.843Z,100877.06
2022-11-20T04:29:56.644Z,100880.31
2022-11-20T04:32:30.753Z,100899.50
2022-11-20T04:35:00.361Z,100872.81
2022-11-20T04:37:35.774Z,100866.59
2022-11-20T04:40:08.683Z,100894.19
2022-11-20T04:42:50.715Z,100885.69
2022-11-20T04:45:22.534Z,100912.94
2022-11-20T04:47:53.031Z,100914.31
2022-11-20T04:50:28.694Z,100932.25
2022-11-20T04:53:04.697Z,100918.03
2022-11-20T04:55:35.170Z,100927.16
2022-11-20T04:58:06.135Z,100930.22
2022-11-20T05:00:43.628Z,100912.78
2022-11-20T05:03:15.210Z,100929.19
2022-11-20T05:05:50.187Z,100960.75
2022-11-20T05:08:24.804Z,100924.50
2022-11-20T05:10:59.310Z,100930.88
2022-11-20T05:13:41.582Z,100946.28
2022-11-20T05:16:17.544Z,100934.22
2022-11-20T05:19:51.929Z,100972.97
2022-11-20T06:09:14.850Z,100929.66
2022-11-20T06:12:28.387Z,100869.66
2022-11-20T06:28:03.617Z,100882.81
2022-11-20T06:35:54.321Z,100893.13
2022-11-20T06:44:37.079Z,100957.88
2022-11-20T06:47:37.104Z,100945.94
2022-11-20T06:50:38.950Z,100944.13
2022-11-20T07:00:29.888Z,100930.78
2022-11-20T07:04:02.166Z,100935.91
2022-11-20T07:07:46.682Z,100968.31
2022-11-20T07:11:09.708Z,100955.78
2022-11-20T07:14:36.383Z,100954.47
2022-11-20T07:17:36.072Z,100980.81
2022-11-20T07:20:17.922Z,100947.63
2022-11-20T07:26:39.926Z,100963.44
2022-11-20T07:29:50.006Z,100934.00
2022-11-20T07:39:35.804Z,100957.69
2022-11-20T07:46:05.760Z,100998.66
2022-11-20T08:14:36.006Z,100979.97
2022-11-20T08:18:33.325Z,100984.38
2022-11-20T08:29:28.551Z,101015.06
2022-11-20T08:32:44.151Z,101029.50
2022-11-20T08:35:43.856Z,101013.03
2022-11-20T08:38:15.438Z,101014.84
2022-11-20T08:44:37.908Z,101043.75
2022-11-20T08:48:09.492Z,100991.75
2022-11-20T08:51:23.326Z,100987.59
2022-11-20T08:54:58.236Z,101002.94
2022-11-20T09:01:32.388Z,101037.31
2022-11-20T09:04:50.727Z,100992.78
2022-11-20T09:10:39.592Z,101033.38
2022-11-20T09:13:38.135Z,101055.38
2022-11-20T09:16:52.665Z,101041.31
2022-11-20T09:19:57.712Z,101026.84
2022-11-20T09:22:47.772Z,101039.84
2022-11-20T09:25:47.617Z,101027.91
2022-11-20T09:35:35.563Z,101041.47
2022-11-20T09:38:15.715Z,101054.00
2022-11-20T09:41:03.963Z,101000.59
2022-11-20T09:51:19.076Z,101023.16
2022-11-20T09:54:02.730Z,101018.66
2022-11-20T09:56:53.493Z,101027.22
2022-11-20T10:07:42.369Z,101033.94
2022-11-20T10:11:07.027Z,101070.78
2022-11-20T10:22:48.938Z,101070.13
2022-11-20T10:35:39.220Z,101073.09
2022-11-20T10:38:19.839Z,101061.41
2022-11-20T10:41:20.435Z,101009.97
2022-11-20T10:48:04.033Z,101044.88
2022-11-20T10:55:40.279Z,101003.06
2022-11-20T10:59:08.898Z,101052.06
2022-11-20T11:02:27.068Z,101085.41
2022-11-20T11:05:59.292Z,101019.53
2022-11-20T11:16:25.525Z,101048.72
2022-11-20T11:24:42.353Z,101040.88
2022-11-20T11:28:13.089Z,101030.88
2022-11-20T11:31:46.116Z,101057.72
2022-11-20T11:38:30.794Z,101011.56
2022-11-20T11:48:51.798Z,101007.47
2022-11-20T11:52:24.545Z,100963.34
2022-11-20T11:56:14.220Z,100977.06
2022-11-20T12:22:46.292Z,101001.78
2022-11-20T12:26:15.998Z,101013.13
2022-11-20T12:33:55.634Z,101033.44
2022-11-20T12:41:46.889Z,101004.19
2022-11-20T12:48:57.181Z,101001.59
2022-11-20T12:52:37.851Z,101013.88
2022-11-20T12:56:21.236Z,100992.50
2022-11-20T13:00:05.090Z,101009.59
2022-11-20T13:18:45.609Z,100994.50
2022-11-20T13:26:18.636Z,100984.06
2022-11-20T13:33:55.716Z,100956.34
2022-11-20T13:42:42.555Z,100981.41
2022-11-20T13:50:37.779Z,101008.56
2022-11-20T15:27:21.874Z,101035.28
2022-11-20T15:30:40.168Z,101025.53
2022-11-20T15:42:43.183Z,101051.72
2022-11-20T15:49:42.726Z,101009.81
2022-11-20T16:00:55.391Z,101019.38
2022-11-20T16:03:40.464Z,100994.25
2022-11-20T16:28:44.927Z,101063.88
